createdAt,value
2023-09-10T00:01:02.764Z,1002.3
2023-09-10T00:02:17.057Z,1002.4
2023-09-10T00:03:31.349Z,1002.4
2023-09-10T00:04:45.642Z,1002.4
2023-09-10T00:05:59.934Z,1002.4
2023-09-10T00:07:14.227Z,1002.4
2023-09-10T00:08:28.519Z,1002.4
2023-09-10T00:09:42.811Z,1002.4
2023-09-10T00:10:57.104Z,1002.4
2023-09-10T00:12:11.396Z,1002.4
2023-09-10T00:13:25.689Z,1002.4
2023-09-10T00:14:39.981Z,1002.4
2023-09-10T00:15:54.274Z,1002.4
2023-09-10T00:17:07.582Z,1002.4
2023-09-10T00:18:21.875Z,1002.4
2023-09-10T00:19:36.167Z,1002.4
2023-09-10T00:20:50.459Z,1002.4
2023-09-10T00:22:04.752Z,1002.4
2023-09-10T00:23:19.044Z,1002.4
2023-09-10T00:24:33.337Z,1002.4
2023-09-10T00:25:47.629Z,1002.4
2023-09-10T00:27:01.922Z,1002.4
2023-09-10T00:28:16.214Z,1002.4
2023-09-10T00:29:30.506Z,1002.4
2023-09-10T00:30:44.799Z,1002.4
2023-09-10T00:31:59.091Z,1002.4
2023-09-10T00:33:12.400Z,1002.4
2023-09-10T00:34:26.692Z,1002.4
2023-09-10T00:35:40.986Z,1002.4
2023-09-10T00:36:55.278Z,1002.4
2023-09-10T00:38:09.571Z,1002.4
2023-09-10T00:39:23.863Z,1002.4
2023-09-10T00:40:38.155Z,1002.4
2023-09-10T00:41:52.448Z,1002.4
2023-09-10T00:43:06.740Z,1002.4
2023-09-10T00:44:21.032Z,1002.4
2023-09-10T00:46:49.618Z,1002.5
2023-09-10T00:48:03.910Z,1002.5
2023-09-10T00:49:17.219Z,1002.5
2023-09-10T00:50:31.511Z,1002.5
2023-09-10T00:51:45.803Z,1002.5
2023-09-10T00:53:00.096Z,1002.5
2023-09-10T00:54:14.388Z,1002.5
2023-09-10T00:55:28.681Z,1002.5
2023-09-10T00:56:42.974Z,1002.5
2023-09-10T00:57:57.267Z,1002.5
2023-09-10T00:59:11.559Z,1002.5
2023-09-10T01:00:25.851Z,1002.5
2023-09-10T01:01:40.144Z,1002.5
2023-09-10T01:02:54.436Z,1002.5
2023-09-10T01:04:08.729Z,1002.5
2023-09-10T01:05:22.037Z,1002.5
2023-09-10T01:06:36.330Z,1002.5
2023-09-10T01:09:04.915Z,1002.5
2023-09-10T01:10:19.207Z,1002.5
2023-09-10T01:11:33.500Z,1002.5
2023-09-10T01:12:47.792Z,1002.5
2023-09-10T01:14:02.084Z,1002.5
2023-09-10T01:15:16.377Z,1002.5
2023-09-10T01:16:30.669Z,1002.5
2023-09-10T01:17:44.962Z,1002.4
2023-09-10T01:18:59.254Z,1002.4
2023-09-10T01:20:13.547Z,1002.4
2023-09-10T01:21:26.855Z,1002.4
2023-09-10T01:22:41.148Z,1002.4
2023-09-10T01:23:55.440Z,1002.4
2023-09-10T01:25:09.733Z,1002.5
2023-09-10T01:26:24.025Z,1002.5
2023-09-10T01:27:38.318Z,1002.5
2023-09-10T01:28:52.610Z,1002.5
2023-09-10T01:30:06.903Z,1002.5
2023-09-10T01:31:21.195Z,1002.5
2023-09-10T01:32:35.488Z,1002.5
2023-09-10T01:33:49.780Z,1002.5
2023-09-10T01:35:04.073Z,1002.5
2023-09-10T01:36:18.366Z,1002.5
2023-09-10T01:37:31.674Z,1002.5
2023-09-10T01:38:45.967Z,1002.5
2023-09-10T01:40:00.260Z,1002.5
2023-09-10T01:41:14.552Z,1002.5
2023-09-10T01:42:28.844Z,1002.5
2023-09-10T01:43:43.137Z,1002.5
2023-09-10T01:44:56.451Z,1002.5
2023-09-10T01:46:10.743Z,1002.5
2023-09-10T01:47:25.035Z,1002.5
2023-09-10T01:48:39.328Z,1002.5
2023-09-10T01:49:53.620Z,1002.5
2023-09-10T01:51:07.913Z,1002.5
2023-09-10T01:52:22.205Z,1002.5
2023-09-10T01:53:36.498Z,1002.5
2023-09-10T01:54:50.765Z,1002.5
2023-09-10T01:56:05.083Z,1002.5
2023-09-10T01:57:19.375Z,1002.5
2023-09-10T01:58:33.667Z,1002.5
2023-09-10T01:59:47.960Z,1002.5
2023-09-10T02:01:01.268Z,1002.5
2023-09-10T02:02:15.561Z,1002.5
2023-09-10T02:03:29.854Z,1002.5
2023-09-10T02:04:44.146Z,1002.6
2023-09-10T02:05:58.438Z,1002.6
2023-09-10T02:07:12.707Z,1002.6
2023-09-10T02:08:27.023Z,1002.6
2023-09-10T02:09:41.316Z,1002.6
2023-09-10T02:10:55.608Z,1002.6
2023-09-10T02:12:09.901Z,1002.6
2023-09-10T02:13:24.193Z,1002.6
2023-09-10T02:14:38.486Z,1002.6
2023-09-10T02:15:52.778Z,1002.6
2023-09-10T02:17:06.087Z,1002.6
2023-09-10T02:18:20.379Z,1002.6
2023-09-10T02:19:34.673Z,1002.6
2023-09-10T02:20:48.965Z,1002.6
2023-09-10T02:22:03.258Z,1002.6
2023-09-10T02:23:17.550Z,1002.6
2023-09-10T02:24:31.843Z,1002.6
2023-09-10T02:25:46.135Z,1002.6
2023-09-10T02:27:00.428Z,1002.6
2023-09-10T02:28:14.720Z,1002.6
2023-09-10T02:29:29.013Z,1002.6
2023-09-10T02:30:43.305Z,1002.6
2023-09-10T02:31:57.598Z,1002.6
2023-09-10T02:33:10.906Z,1002.6
2023-09-10T02:34:25.199Z,1002.6
2023-09-10T02:35:39.492Z,1002.6
2023-09-10T02:36:53.784Z,1002.6
2023-09-10T02:38:08.077Z,1002.6
2023-09-10T02:39:22.369Z,1002.6
2023-09-10T02:40:36.661Z,1002.6
2023-09-10T02:41:50.954Z,1002.6
2023-09-10T02:43:05.246Z,1002.6
2023-09-10T02:44:19.539Z,1002.6
2023-09-10T02:45:33.832Z,1002.6
2023-09-10T02:46:48.124Z,1002.6
2023-09-10T02:48:02.417Z,1002.6
2023-09-10T02:49:15.725Z,1002.6
2023-09-10T02:50:30.018Z,1002.6
2023-09-10T02:51:44.310Z,1002.6
2023-09-10T02:52:58.603Z,1002.6
2023-09-10T02:54:12.895Z,1002.6
2023-09-10T02:55:27.188Z,1002.6
2023-09-10T02:56:41.481Z,1002.6
2023-09-10T02:57:55.773Z,1002.6
2023-09-10T02:59:10.066Z,1002.6
2023-09-10T03:00:24.358Z,1002.6
2023-09-10T03:01:38.650Z,1002.6
2023-09-10T03:02:52.943Z,1002.6
2023-09-10T03:04:07.235Z,1002.6
2023-09-10T03:05:20.544Z,1002.6
2023-09-10T03:06:34.837Z,1002.6
2023-09-10T03:07:49.129Z,1002.6
2023-09-10T03:09:03.422Z,1002.6
2023-09-10T03:10:17.714Z,1002.6
2023-09-10T03:11:32.007Z,1002.6
2023-09-10T03:12:46.299Z,1002.7
2023-09-10T03:14:00.592Z,1002.6
2023-09-10T03:15:14.884Z,1002.6
2023-09-10T03:16:29.177Z,1002.6
2023-09-10T03:17:43.470Z,1002.6
2023-09-10T03:18:57.762Z,1002.6
2023-09-10T03:20:12.054Z,1002.6
2023-09-10T03:21:25.363Z,1002.6
2023-09-10T03:22:39.656Z,1002.6
2023-09-10T03:23:53.948Z,1002.6
2023-09-10T03:25:08.241Z,1002.6
2023-09-10T03:26:22.533Z,1002.6
2023-09-10T03:27:36.826Z,1002.6
2023-09-10T03:28:51.118Z,1002.6
2023-09-10T03:30:05.411Z,1002.6
2023-09-10T03:31:19.703Z,1002.6
2023-09-10T03:32:33.996Z,1002.6
2023-09-10T03:33:48.288Z,1002.6
2023-09-10T03:35:02.581Z,1002.6
2023-09-10T03:36:16.873Z,1002.6
2023-09-10T03:37:30.182Z,1002.6
2023-09-10T03:38:44.474Z,1002.6
2023-09-10T03:39:58.767Z,1002.6
2023-09-10T03:41:13.059Z,1002.6
2023-09-10T03:42:27.352Z,1002.6
2023-09-10T03:43:41.644Z,1002.6
2023-09-10T03:44:55.937Z,1002.6
2023-09-10T03:46:10.229Z,1002.6
2023-09-10T03:47:24.522Z,1002.6
2023-09-10T03:48:38.814Z,1002.6
2023-09-10T03:49:53.107Z,1002.6
2023-09-10T03:51:07.382Z,1002.6
2023-09-10T03:52:21.692Z,1002.6
2023-09-10T03:53:35.001Z,1002.6
2023-09-10T03:54:49.240Z,1002.6
2023-09-10T03:56:03.532Z,1002.6
2023-09-10T03:57:17.825Z,1002.6
2023-09-10T03:58:32.074Z,1002.6
2023-09-10T03:59:46.313Z,1002.6
2023-09-10T04:01:00.606Z,1002.6
2023-09-10T04:02:14.899Z,1002.6
2023-09-10T04:03:29.192Z,1002.6
2023-09-10T04:04:43.441Z,1002.5
2023-09-10T04:05:57.691Z,1002.5
2023-09-10T04:07:11.929Z,1002.5
2023-09-10T04:08:26.168Z,1002.5
2023-09-10T04:09:39.422Z,1002.5
2023-09-10T04:10:53.661Z,1002.5
2023-09-10T04:12:07.900Z,1002.5
2023-09-10T04:13:22.138Z,1002.5
2023-09-10T04:14:36.377Z,1002.5
2023-09-10T04:15:50.615Z,1002.5
2023-09-10T04:17:04.854Z,1002.6
2023-09-10T04:18:19.093Z,1002.6
2023-09-10T04:19:33.332Z,1002.6
2023-09-10T04:20:47.571Z,1002.6
2023-09-10T04:22:01.809Z,1002.6
2023-09-10T04:23:16.047Z,1002.6
2023-09-10T04:24:30.286Z,1002.6
2023-09-10T04:25:43.541Z,1002.6
2023-09-10T04:26:57.779Z,1002.6
2023-09-10T04:28:12.018Z,1002.6
2023-09-10T04:29:26.256Z,1002.7
2023-09-10T04:30:40.495Z,1002.7
2023-09-10T04:31:54.733Z,1002.7
2023-09-10T04:33:08.972Z,1002.7
2023-09-10T04:34:23.210Z,1002.7
2023-09-10T04:35:37.449Z,1002.7
2023-09-10T04:36:51.687Z,1002.7
2023-09-10T04:38:05.926Z,1002.7
2023-09-10T04:39:20.164Z,1002.7
2023-09-10T04:40:34.403Z,1002.7
2023-09-10T04:41:47.658Z,1002.7
2023-09-10T04:43:01.896Z,1002.8
2023-09-10T04:44:16.135Z,1002.8
2023-09-10T04:45:30.373Z,1002.8
2023-09-10T04:46:44.612Z,1002.8
2023-09-10T04:47:58.850Z,1002.8
2023-09-10T04:49:13.089Z,1002.8
2023-09-10T04:50:27.327Z,1002.8
2023-09-10T04:51:41.566Z,1002.8
2023-09-10T04:52:55.805Z,1002.8
2023-09-10T04:54:10.043Z,1002.8
2023-09-10T04:55:24.282Z,1002.8
2023-09-10T04:56:38.520Z,1002.8
2023-09-10T04:57:51.775Z,1002.8
2023-09-10T04:59:06.013Z,1002.8
2023-09-10T05:00:20.252Z,1002.8
2023-09-10T05:01:34.490Z,1002.8
2023-09-10T05:02:48.729Z,1002.9
2023-09-10T05:04:02.968Z,1002.9
2023-09-10T05:05:17.184Z,1002.9
2023-09-10T05:06:31.444Z,1002.9
2023-09-10T05:07:45.683Z,1002.9
2023-09-10T05:08:59.921Z,1002.9
2023-09-10T05:10:14.160Z,1002.9
2023-09-10T05:11:28.398Z,1002.9
2023-09-10T05:12:42.637Z,1002.9
2023-09-10T05:13:55.891Z,1003
2023-09-10T05:15:10.130Z,1003
2023-09-10T05:16:24.369Z,1003
2023-09-10T05:17:38.607Z,1003
2023-09-10T05:18:52.845Z,1003
2023-09-10T05:20:07.084Z,1003
2023-09-10T05:21:21.322Z,1003.1
2023-09-10T05:22:35.561Z,1003.1
2023-09-10T05:23:49.799Z,1003.1
2023-09-10T05:25:04.038Z,1003.1
2023-09-10T05:26:18.276Z,1003.1
2023-09-10T05:27:32.515Z,1003.1
2023-09-10T05:28:46.753Z,1003.1
2023-09-10T05:30:00.008Z,1003.1
2023-09-10T05:31:14.246Z,1003.1
2023-09-10T05:32:28.485Z,1003.1
2023-09-10T05:33:42.723Z,1003
2023-09-10T05:34:56.962Z,1003
2023-09-10T05:36:11.200Z,1003
2023-09-10T05:37:25.439Z,1003
2023-09-10T05:38:39.677Z,1003.1
2023-09-10T05:39:53.900Z,1003.1
2023-09-10T05:41:08.154Z,1003.1
2023-09-10T05:42:22.392Z,1003.1
2023-09-10T05:43:36.631Z,1003.1
2023-09-10T05:44:50.869Z,1003.1
2023-09-10T05:46:04.124Z,1003.1
2023-09-10T05:47:18.362Z,1003.2
2023-09-10T05:48:32.601Z,1003.2
2023-09-10T05:49:46.839Z,1003.2
2023-09-10T05:51:01.078Z,1003.2
2023-09-10T05:52:15.316Z,1003.2
2023-09-10T05:53:28.576Z,1003.2
2023-09-10T05:54:42.814Z,1003.2
2023-09-10T05:55:57.052Z,1003.2
2023-09-10T05:57:11.291Z,1003.2
2023-09-10T05:58:25.530Z,1003.2
2023-09-10T05:59:39.769Z,1003.2
2023-09-10T06:00:54.007Z,1003.2
2023-09-10T06:02:08.246Z,1003.3
2023-09-10T06:03:22.484Z,1003.3
2023-09-10T06:04:36.722Z,1003.3
2023-09-10T06:05:50.961Z,1003.3
2023-09-10T06:07:05.199Z,1003.3
2023-09-10T06:08:19.438Z,1003.3
2023-09-10T06:09:32.692Z,1003.3
2023-09-10T06:10:46.931Z,1003.3
2023-09-10T06:12:01.169Z,1003.3
2023-09-10T06:13:15.408Z,1003.3
2023-09-10T06:14:29.646Z,1003.3
2023-09-10T06:15:43.884Z,1003.3
2023-09-10T06:16:58.123Z,1003.3
2023-09-10T06:18:12.361Z,1003.3
2023-09-10T06:19:26.600Z,1003.3
2023-09-10T06:20:40.838Z,1003.3
2023-09-10T06:21:55.077Z,1003.3
2023-09-10T06:23:09.315Z,1003.3
2023-09-10T06:24:23.554Z,1003.3
2023-09-10T06:25:36.808Z,1003.3
2023-09-10T06:26:51.047Z,1003.3
2023-09-10T06:28:05.285Z,1003.3
2023-09-10T06:29:19.523Z,1003.3
2023-09-10T06:30:33.762Z,1003.3
2023-09-10T06:31:48.001Z,1003.3
2023-09-10T06:33:02.239Z,1003.3
2023-09-10T06:34:16.478Z,1003.3
2023-09-10T06:35:30.716Z,1003.4
2023-09-10T06:36:44.954Z,1003.4
2023-09-10T06:37:59.193Z,1003.4
2023-09-10T06:39:13.431Z,1003.4
2023-09-10T06:40:27.670Z,1003.4
2023-09-10T06:41:40.925Z,1003.4
2023-09-10T06:42:55.163Z,1003.3
2023-09-10T06:44:09.402Z,1003.3
2023-09-10T06:45:23.640Z,1003.3
2023-09-10T06:46:37.878Z,1003.3
2023-09-10T06:47:52.117Z,1003.3
2023-09-10T06:49:06.355Z,1003.3
2023-09-10T06:50:20.594Z,1003.3
2023-09-10T06:51:34.832Z,1003.3
2023-09-10T06:52:49.071Z,1003.3
2023-09-10T06:54:03.309Z,1003.3
2023-09-10T06:55:17.548Z,1003.3
2023-09-10T06:56:31.786Z,1003.3
2023-09-10T06:57:45.041Z,1003.3
2023-09-10T06:58:59.279Z,1003.4
2023-09-10T07:00:13.489Z,1003.4
2023-09-10T07:01:27.756Z,1003.4
2023-09-10T07:02:41.995Z,1003.3
2023-09-10T07:03:56.233Z,1003.3
2023-09-10T07:05:10.471Z,1003.3
2023-09-10T07:06:24.710Z,1003.3
2023-09-10T07:07:38.948Z,1003.3
2023-09-10T07:08:53.187Z,1003.3
2023-09-10T07:10:07.425Z,1003.3
2023-09-10T07:11:21.664Z,1003.3
2023-09-10T07:12:35.902Z,1003.3
2023-09-10T07:13:49.157Z,1003.3
2023-09-10T07:15:03.395Z,1003.4
2023-09-10T07:16:17.634Z,1003.4
2023-09-10T07:17:31.872Z,1003.4
2023-09-10T07:18:46.080Z,1003.4
2023-09-10T07:20:00.349Z,1003.4
2023-09-10T07:21:14.587Z,1003.4
2023-09-10T07:22:28.826Z,1003.4
2023-09-10T07:23:43.065Z,1003.4
2023-09-10T07:24:57.303Z,1003.4
2023-09-10T07:26:11.542Z,1003.4
2023-09-10T07:27:25.780Z,1003.4
2023-09-10T07:28:40.018Z,1003.4
2023-09-10T07:29:53.273Z,1003.4
2023-09-10T07:31:07.511Z,1003.4
2023-09-10T07:32:21.750Z,1003.4
2023-09-10T07:33:35.988Z,1003.4
2023-09-10T07:34:50.227Z,1003.4
2023-09-10T07:36:04.465Z,1003.4
2023-09-10T07:37:18.704Z,1003.4
2023-09-10T07:38:32.942Z,1003.4
2023-09-10T07:39:47.181Z,1003.4
2023-09-10T07:41:01.419Z,1003.4
2023-09-10T07:42:15.658Z,1003.4
2023-09-10T07:43:29.896Z,1003.4
2023-09-10T07:44:44.135Z,1003.4
2023-09-10T07:45:57.389Z,1003.4
2023-09-10T07:47:11.628Z,1003.4
2023-09-10T07:48:25.866Z,1003.4
2023-09-10T07:49:40.105Z,1003.4
2023-09-10T07:50:54.343Z,1003.4
2023-09-10T07:52:08.582Z,1003.5
2023-09-10T07:53:22.820Z,1003.4
2023-09-10T07:54:37.058Z,1003.4
2023-09-10T07:55:51.297Z,1003.5
2023-09-10T07:57:05.536Z,1003.5
2023-09-10T07:58:19.774Z,1003.5
2023-09-10T07:59:34.012Z,1003.5
2023-09-10T08:00:48.251Z,1003.5
2023-09-10T08:02:01.505Z,1003.5
2023-09-10T08:03:15.744Z,1003.4
2023-09-10T08:04:29.982Z,1003.5
2023-09-10T08:05:44.221Z,1003.5
2023-09-10T08:06:58.460Z,1003.5
2023-09-10T08:08:12.698Z,1003.5
2023-09-10T08:09:26.936Z,1003.5
2023-09-10T08:10:41.175Z,1003.5
2023-09-10T08:11:55.413Z,1003.5
2023-09-10T08:13:09.652Z,1003.5
2023-09-10T08:14:23.890Z,1003.5
2023-09-10T08:15:38.129Z,1003.5
2023-09-10T08:16:52.367Z,1003.5
2023-09-10T08:18:05.622Z,1003.5
2023-09-10T08:19:19.861Z,1003.5
2023-09-10T08:20:34.099Z,1003.5
2023-09-10T08:21:48.337Z,1003.4
2023-09-10T08:23:02.576Z,1003.5
2023-09-10T08:24:16.814Z,1003.5
2023-09-10T08:25:31.053Z,1003.5
2023-09-10T08:26:45.291Z,1003.5
2023-09-10T08:27:59.530Z,1003.5
2023-09-10T08:29:13.768Z,1003.5
2023-09-10T08:30:28.007Z,1003.5
2023-09-10T08:31:42.245Z,1003.5
2023-09-10T08:32:56.484Z,1003.5
2023-09-10T08:34:09.738Z,1003.5
2023-09-10T08:35:23.977Z,1003.5
2023-09-10T08:36:38.215Z,1003.4
2023-09-10T08:37:52.454Z,1003.4
2023-09-10T08:39:06.693Z,1003.4
2023-09-10T08:40:20.931Z,1003.4
2023-09-10T08:41:35.169Z,1003.4
2023-09-10T08:42:49.408Z,1003.4
2023-09-10T08:44:03.646Z,1003.4
2023-09-10T08:45:17.885Z,1003.4
2023-09-10T08:46:32.123Z,1003.4
2023-09-10T08:47:46.362Z,1003.4
2023-09-10T08:49:00.601Z,1003.4
2023-09-10T08:50:13.855Z,1003.4
2023-09-10T08:51:28.094Z,1003.4
2023-09-10T08:52:42.332Z,1003.4
2023-09-10T08:53:56.571Z,1003.4
2023-09-10T08:55:10.809Z,1003.4
2023-09-10T08:56:25.048Z,1003.4
2023-09-10T08:57:39.286Z,1003.4
2023-09-10T08:58:53.525Z,1003.5
2023-09-10T09:00:07.764Z,1003.5
2023-09-10T09:01:22.002Z,1003.5
2023-09-10T09:02:36.241Z,1003.5
2023-09-10T09:03:50.479Z,1003.4
2023-09-10T09:05:04.717Z,1003.4
2023-09-10T09:06:17.972Z,1003.4
2023-09-10T09:07:32.211Z,1003.4
2023-09-10T09:08:46.449Z,1003.5
2023-09-10T09:10:00.687Z,1003.5
2023-09-10T09:11:14.926Z,1003.5
2023-09-10T09:12:29.165Z,1003.5
2023-09-10T09:13:43.403Z,1003.5
2023-09-10T09:14:57.642Z,1003.5
2023-09-10T09:16:11.880Z,1003.5
2023-09-10T09:17:26.119Z,1003.4
2023-09-10T09:18:40.357Z,1003.5
2023-09-10T09:19:54.596Z,1003.5
2023-09-10T09:21:08.834Z,1003.5
2023-09-10T09:22:22.089Z,1003.5
2023-09-10T09:23:36.327Z,1003.5
2023-09-10T09:24:50.545Z,1003.5
2023-09-10T09:26:04.805Z,1003.5
2023-09-10T09:27:19.043Z,1003.5
2023-09-10T09:28:33.281Z,1003.5
2023-09-10T09:29:47.520Z,1003.5
2023-09-10T09:31:01.758Z,1003.5
2023-09-10T09:32:15.997Z,1003.5
2023-09-10T09:33:30.237Z,1003.5
2023-09-10T09:34:44.475Z,1003.5
2023-09-10T09:35:58.699Z,1003.5
2023-09-10T09:37:12.952Z,1003.5
2023-09-10T09:38:26.207Z,1003.5
2023-09-10T09:39:40.445Z,1003.5
2023-09-10T09:40:54.684Z,1003.5
2023-09-10T09:42:08.922Z,1003.5
2023-09-10T09:43:23.161Z,1003.5
2023-09-10T09:44:37.400Z,1003.5
2023-09-10T09:45:51.638Z,1003.4
2023-09-10T09:47:05.877Z,1003.5
2023-09-10T09:48:20.115Z,1003.4
2023-09-10T09:49:34.354Z,1003.4
2023-09-10T09:50:48.592Z,1003.4
2023-09-10T09:52:02.831Z,1003.4
2023-09-10T09:53:17.070Z,1003.4
2023-09-10T09:54:30.324Z,1003.4
2023-09-10T09:55:44.563Z,1003.4
2023-09-10T09:56:58.801Z,1003.4
2023-09-10T09:58:13.040Z,1003.3
2023-09-10T09:59:27.278Z,1003.3
2023-09-10T10:00:41.517Z,1003.3
2023-09-10T10:01:54.777Z,1003.3
2023-09-10T10:03:09.015Z,1003.3
2023-09-10T10:04:23.254Z,1003.3
2023-09-10T10:05:37.493Z,1003.3
2023-09-10T10:06:51.732Z,1003.3
2023-09-10T10:08:05.971Z,1003.2
2023-09-10T10:09:20.209Z,1003.2
2023-09-10T10:10:34.448Z,1003.2
2023-09-10T10:11:48.686Z,1003.2
2023-09-10T10:13:02.925Z,1003.2
2023-09-10T10:14:17.163Z,1003.2
2023-09-10T10:15:31.402Z,1003.2
2023-09-10T10:16:45.616Z,1003.2
2023-09-10T10:17:58.895Z,1003.2
2023-09-10T10:19:13.134Z,1003.2
2023-09-10T10:20:27.372Z,1003.2
2023-09-10T10:21:41.611Z,1003.2
2023-09-10T10:22:55.849Z,1003.1
2023-09-10T10:24:10.088Z,1003.1
2023-09-10T10:25:24.326Z,1003.1
2023-09-10T10:26:38.565Z,1003.1
2023-09-10T10:27:52.804Z,1003.1
2023-09-10T10:29:07.042Z,1003.1
2023-09-10T10:30:21.281Z,1003.1
2023-09-10T10:31:35.519Z,1003.1
2023-09-10T10:32:49.758Z,1003.1
2023-09-10T10:34:03.013Z,1003.1
2023-09-10T10:35:17.251Z,1003.1
2023-09-10T10:36:31.490Z,1003.1
2023-09-10T10:37:45.729Z,1003.1
2023-09-10T10:38:59.940Z,1003.1
2023-09-10T10:40:14.207Z,1003.1
2023-09-10T10:41:28.445Z,1003.1
2023-09-10T10:42:42.684Z,1003.1
2023-09-10T10:43:56.922Z,1003
2023-09-10T10:45:11.161Z,1003
2023-09-10T10:46:25.399Z,1003
2023-09-10T10:47:39.638Z,1003
2023-09-10T10:48:53.877Z,1003
2023-09-10T10:50:07.131Z,1003
2023-09-10T10:51:21.370Z,1003
2023-09-10T10:52:35.609Z,1003
2023-09-10T10:53:49.847Z,1003
2023-09-10T10:55:04.086Z,1003
2023-09-10T10:56:18.324Z,1003
2023-09-10T10:57:32.563Z,1003
2023-09-10T10:58:46.802Z,1003
2023-09-10T11:00:01.040Z,1003
2023-09-10T11:01:15.279Z,1003
2023-09-10T11:02:29.517Z,1003
2023-09-10T11:03:43.756Z,1003
2023-09-10T11:04:57.994Z,1003
2023-09-10T11:06:11.249Z,1003
2023-09-10T11:07:25.487Z,1003
2023-09-10T11:08:39.726Z,1003
2023-09-10T11:09:53.965Z,1003
2023-09-10T11:11:08.203Z,1002.9
2023-09-10T11:12:22.442Z,1002.9
2023-09-10T11:13:36.680Z,1002.9
2023-09-10T11:14:50.920Z,1002.9
2023-09-10T11:16:05.140Z,1002.9
2023-09-10T11:17:19.397Z,1002.9
2023-09-10T11:18:33.635Z,1002.9
2023-09-10T11:19:47.874Z,1002.9
2023-09-10T11:21:02.113Z,1002.9
2023-09-10T11:22:15.367Z,1002.9
2023-09-10T11:23:29.606Z,1002.9
2023-09-10T11:24:43.844Z,1002.9
2023-09-10T11:25:58.083Z,1002.9
2023-09-10T11:27:12.321Z,1002.9
2023-09-10T11:28:26.560Z,1002.9
2023-09-10T11:29:40.798Z,1002.9
2023-09-10T11:30:55.037Z,1002.8
2023-09-10T11:32:09.275Z,1002.8
2023-09-10T11:33:23.514Z,1002.8
2023-09-10T11:34:37.752Z,1002.8
2023-09-10T11:35:51.991Z,1002.8
2023-09-10T11:37:06.229Z,1002.8
2023-09-10T11:38:19.484Z,1002.8
2023-09-10T11:39:33.723Z,1002.8
2023-09-10T11:40:47.961Z,1002.8
2023-09-10T11:42:02.200Z,1002.8
2023-09-10T11:43:16.438Z,1002.8
2023-09-10T11:44:30.677Z,1002.8
2023-09-10T11:45:44.915Z,1002.8
2023-09-10T11:46:59.154Z,1002.8
2023-09-10T11:48:13.392Z,1002.8
2023-09-10T11:49:27.631Z,1002.8
2023-09-10T11:50:41.869Z,1002.8
2023-09-10T11:51:56.108Z,1002.8
2023-09-10T11:53:10.346Z,1002.8
2023-09-10T11:54:23.601Z,1002.8
2023-09-10T11:55:37.839Z,1002.8
2023-09-10T11:56:52.078Z,1002.8
2023-09-10T11:58:06.316Z,1002.8
2023-09-10T11:59:20.555Z,1002.7
2023-09-10T12:00:34.793Z,1002.7
2023-09-10T12:01:49.032Z,1002.7
2023-09-10T12:03:03.271Z,1002.7
2023-09-10T12:04:17.509Z,1002.7
2023-09-10T12:05:31.748Z,1002.7
2023-09-10T12:06:45.986Z,1002.8
2023-09-10T12:08:00.225Z,1002.8
2023-09-10T12:09:14.463Z,1002.8
2023-09-10T12:10:27.718Z,1002.7
2023-09-10T12:11:41.956Z,1002.7
2023-09-10T12:12:56.195Z,1002.8
2023-09-10T12:14:10.434Z,1002.8
2023-09-10T12:15:24.672Z,1002.8
2023-09-10T12:16:38.910Z,1002.7
2023-09-10T12:17:53.149Z,1002.7
2023-09-10T12:19:07.388Z,1002.7
2023-09-10T12:20:21.627Z,1002.7
2023-09-10T12:21:35.865Z,1002.7
2023-09-10T12:22:50.104Z,1002.7
2023-09-10T12:24:04.342Z,1002.7
2023-09-10T12:25:18.581Z,1002.7
2023-09-10T12:26:31.836Z,1002.7
2023-09-10T12:27:46.074Z,1002.7
2023-09-10T12:29:00.313Z,1002.7
2023-09-10T12:30:14.551Z,1002.7
2023-09-10T12:31:28.790Z,1002.7
2023-09-10T12:32:43.028Z,1002.7
2023-09-10T12:33:57.267Z,1002.7
2023-09-10T12:35:11.506Z,1002.7
2023-09-10T12:36:25.744Z,1002.7
2023-09-10T12:37:39.983Z,1002.7
2023-09-10T12:38:54.221Z,1002.7
2023-09-10T12:40:08.460Z,1002.6
2023-09-10T12:41:22.698Z,1002.6
2023-09-10T12:42:35.953Z,1002.6
2023-09-10T12:43:50.191Z,1002.6
2023-09-10T12:45:04.430Z,1002.6
2023-09-10T12:46:18.669Z,1002.6
2023-09-10T12:47:32.907Z,1002.6
2023-09-10T12:48:47.145Z,1002.6
2023-09-10T12:50:01.384Z,1002.6
2023-09-10T12:51:15.622Z,1002.6
2023-09-10T12:52:29.861Z,1002.6
2023-09-10T12:53:44.099Z,1002.6
2023-09-10T12:54:58.339Z,1002.6
2023-09-10T12:56:12.577Z,1002.5
2023-09-10T12:57:26.816Z,1002.5
2023-09-10T12:58:40.071Z,1002.5
2023-09-10T12:59:54.310Z,1002.5
2023-09-10T13:01:08.548Z,1002.5
2023-09-10T13:02:22.787Z,1002.5
2023-09-10T13:03:37.027Z,1002.5
2023-09-10T13:04:51.265Z,1002.5
2023-09-10T13:06:05.504Z,1002.5
2023-09-10T13:07:19.742Z,1002.5
2023-09-10T13:08:33.981Z,1002.5
2023-09-10T13:09:48.219Z,1002.4
2023-09-10T13:11:02.458Z,1002.4
2023-09-10T13:12:16.696Z,1002.4
2023-09-10T13:13:30.935Z,1002.4
2023-09-10T13:14:44.190Z,1002.4
2023-09-10T13:15:58.428Z,1002.4
2023-09-10T13:17:12.667Z,1002.4
2023-09-10T13:18:26.905Z,1002.4
2023-09-10T13:19:41.144Z,1002.4
2023-09-10T13:20:55.382Z,1002.3
2023-09-10T13:22:09.621Z,1002.3
2023-09-10T13:23:23.859Z,1002.3
2023-09-10T13:24:38.098Z,1002.3
2023-09-10T13:25:52.336Z,1002.3
2023-09-10T13:27:06.575Z,1002.3
2023-09-10T13:28:20.814Z,1002.3
2023-09-10T13:29:35.052Z,1002.3
2023-09-10T13:30:48.307Z,1002.3
2023-09-10T13:32:02.546Z,1002.3
2023-09-10T13:33:16.784Z,1002.3
2023-09-10T13:34:31.023Z,1002.3
2023-09-10T13:35:45.261Z,1002.3
2023-09-10T13:36:59.500Z,1002.3
2023-09-10T13:38:13.738Z,1002.3
2023-09-10T13:39:27.977Z,1002.3
2023-09-10T13:40:42.216Z,1002.3
2023-09-10T13:41:56.454Z,1002.3
2023-09-10T13:43:10.693Z,1002.3
2023-09-10T13:44:24.931Z,1002.3
2023-09-10T13:45:39.170Z,1002.3
2023-09-10T13:46:52.424Z,1002.3
2023-09-10T13:48:06.663Z,1002.3
2023-09-10T13:49:20.901Z,1002.3
2023-09-10T13:50:35.140Z,1002.3
2023-09-10T13:51:49.379Z,1002.3
2023-09-10T13:53:03.617Z,1002.3
2023-09-10T13:54:17.856Z,1002.3
2023-09-10T13:55:32.094Z,1002.3
2023-09-10T13:56:46.333Z,1002.3
2023-09-10T13:58:00.571Z,1002.3
2023-09-10T13:59:14.810Z,1002.2
2023-09-10T14:00:29.049Z,1002.2
2023-09-10T14:01:43.287Z,1002.2
2023-09-10T14:02:56.542Z,1002.2
2023-09-10T14:04:10.781Z,1002.2
2023-09-10T14:05:25.019Z,1002.2
2023-09-10T14:06:39.258Z,1002.2
2023-09-10T14:07:53.496Z,1002.2
2023-09-10T14:09:07.735Z,1002.2
2023-09-10T14:10:20.995Z,1002.1
2023-09-10T14:11:35.233Z,1002.1
2023-09-10T14:12:49.472Z,1002.1
2023-09-10T14:14:03.710Z,1002.1
2023-09-10T14:15:17.949Z,1002.1
2023-09-10T14:16:32.167Z,1002.1
2023-09-10T14:17:46.426Z,1002.1
2023-09-10T14:19:00.664Z,1002.1
2023-09-10T14:20:14.903Z,1002.1
2023-09-10T14:21:29.141Z,1002.1
2023-09-10T14:22:43.380Z,1002.1
2023-09-10T14:23:57.618Z,1002.1
2023-09-10T14:25:11.857Z,1002.1
2023-09-10T14:26:25.111Z,1002.1
2023-09-10T14:27:39.350Z,1002.1
2023-09-10T14:28:53.588Z,1002.1
2023-09-10T14:30:07.827Z,1002.1
2023-09-10T14:31:22.065Z,1002.1
2023-09-10T14:32:36.304Z,1002.1
2023-09-10T14:33:50.542Z,1002.1
2023-09-10T14:35:04.781Z,1002.1
2023-09-10T14:36:19.019Z,1002.1
2023-09-10T14:37:33.258Z,1002.1
2023-09-10T14:38:47.497Z,1002.1
2023-09-10T14:40:01.735Z,1002.1
2023-09-10T14:41:15.974Z,1002.1
2023-09-10T14:42:29.228Z,1002.1
2023-09-10T14:43:43.467Z,1002.1
2023-09-10T14:44:57.706Z,1002
2023-09-10T14:46:11.944Z,1002
2023-09-10T14:47:26.183Z,1002
2023-09-10T14:48:40.422Z,1002
2023-09-10T14:49:54.660Z,1002
2023-09-10T14:51:08.899Z,1002.1
2023-09-10T14:52:23.137Z,1002.1
2023-09-10T14:53:37.376Z,1002.1
2023-09-10T14:54:51.615Z,1002.1
2023-09-10T14:56:05.853Z,1002.1
2023-09-10T14:57:20.092Z,1002
2023-09-10T14:58:33.346Z,1002
2023-09-10T14:59:47.585Z,1002
2023-09-10T15:01:01.824Z,1002
2023-09-10T15:02:16.062Z,1002
2023-09-10T15:03:30.301Z,1002
2023-09-10T15:04:44.539Z,1002
2023-09-10T15:05:58.778Z,1002
2023-09-10T15:07:13.017Z,1002
2023-09-10T15:08:27.255Z,1001.9
2023-09-10T15:09:41.494Z,1001.9
2023-09-10T15:10:55.732Z,1001.9
2023-09-10T15:12:09.971Z,1001.9
2023-09-10T15:13:24.209Z,1001.9
2023-09-10T15:14:37.464Z,1001.9
2023-09-10T15:15:51.702Z,1001.9
2023-09-10T15:17:05.941Z,1001.9
2023-09-10T15:18:20.180Z,1001.9
2023-09-10T15:19:34.418Z,1001.9
2023-09-10T15:20:48.657Z,1001.9
2023-09-10T15:22:02.895Z,1001.9
2023-09-10T15:23:17.134Z,1001.9
2023-09-10T15:24:31.372Z,1001.9
2023-09-10T15:25:45.611Z,1001.9
2023-09-10T15:26:59.849Z,1001.9
2023-09-10T15:28:14.088Z,1001.9
2023-09-10T15:29:28.326Z,1001.9
2023-09-10T15:30:41.581Z,1001.9
2023-09-10T15:31:55.820Z,1001.8